createdAt,value
2017-06-20T00:00:44.581Z,22.80
2017-06-20T00:03:12.899Z,22.80
2017-06-20T00:05:41.211Z,22.80
2017-06-20T00:08:09.495Z,22.70
2017-06-20T00:10:38.543Z,22.60
2017-06-20T00:13:06.847Z,22.60
2017-06-20T00:15:35.134Z,22.60
2017-06-20T00:18:03.660Z,22.50
2017-06-20T00:20:32.713Z,22.50
2017-06-20T00:23:01.003Z,22.50
2017-06-20T00:25:29.282Z,22.50
2017-06-20T00:27:57.580Z,22.50
2017-06-20T00:30:25.882Z,22.40
2017-06-20T00:32:54.251Z,22.40
2017-06-20T00:35:23.715Z,22.30
2017-06-20T00:37:52.176Z,22.30
2017-06-20T00:40:20.686Z,22.30
2017-06-20T00:42:48.959Z,22.30
2017-06-20T00:45:17.296Z,22.30
2017-06-20T00:47:46.343Z,22.30
2017-06-20T00:50:15.415Z,22.30
2017-06-20T00:52:43.786Z,22.20
2017-06-20T00:55:12.067Z,22.20
2017-06-20T00:57:40.377Z,22.20
2017-06-20T01:00:08.656Z,22.20
2017-06-20T01:02:37.039Z,22.20
2017-06-20T01:05:05.402Z,22.10
2017-06-20T01:07:33.691Z,22.10
2017-06-20T01:10:01.976Z,22.10
2017-06-20T01:12:30.323Z,22.10
2017-06-20T01:14:58.747Z,22.00
2017-06-20T01:17:27.063Z,22.00
2017-06-20T01:19:55.409Z,22.00
2017-06-20T01:22:24.456Z,22.00
2017-06-20T01:24:52.848Z,21.90
2017-06-20T01:27:22.033Z,21.90
2017-06-20T01:29:51.083Z,21.90
2017-06-20T01:32:19.359Z,21.90
2017-06-20T01:34:47.691Z,21.90
2017-06-20T01:37:16.096Z,21.80
2017-06-20T01:39:45.157Z,21.80
2017-06-20T01:42:13.433Z,21.70
2017-06-20T01:44:41.944Z,21.80
2017-06-20T01:47:10.236Z,21.80
2017-06-20T01:49:38.674Z,21.80
2017-06-20T01:52:06.947Z,21.70
2017-06-20T01:54:35.238Z,21.70
2017-06-20T01:57:04.112Z,21.70
2017-06-20T01:59:32.417Z,21.70
2017-06-20T02:02:01.383Z,21.70
2017-06-20T02:04:29.660Z,21.70
2017-06-20T02:06:57.951Z,21.70
2017-06-20T02:09:26.361Z,21.70
2017-06-20T02:11:55.510Z,21.60
2017-06-20T02:14:23.904Z,21.60
2017-06-20T02:16:52.958Z,21.60
2017-06-20T02:19:21.241Z,21.60
2017-06-20T02:21:49.575Z,21.60
2017-06-20T02:24:17.855Z,21.60
2017-06-20T02:26:46.290Z,21.50
2017-06-20T02:29:14.567Z,21.50
2017-06-20T02:31:42.887Z,21.50
2017-06-20T02:34:11.176Z,21.50
2017-06-20T02:36:39.465Z,21.50
2017-06-20T02:39:07.939Z,21.50
2017-06-20T02:41:36.216Z,21.40
2017-06-20T02:44:04.779Z,21.40
2017-06-20T02:46:33.317Z,21.40
2017-06-20T02:49:01.780Z,21.40
2017-06-20T02:51:30.362Z,21.40
2017-06-20T02:53:58.652Z,21.40
2017-06-20T02:56:27.026Z,21.40
2017-06-20T02:58:55.348Z,21.40
2017-06-20T03:01:23.631Z,21.30
2017-06-20T03:03:52.027Z,21.30
2017-06-20T03:06:20.324Z,21.20
2017-06-20T03:08:48.788Z,21.20
2017-06-20T03:11:17.075Z,21.20
2017-06-20T03:13:45.369Z,21.20
2017-06-20T03:16:13.695Z,21.20
2017-06-20T03:18:42.861Z,21.20
2017-06-20T03:21:11.247Z,21.20
2017-06-20T03:23:40.529Z,21.20
2017-06-20T03:26:09.592Z,21.10
2017-06-20T03:28:37.870Z,21.10
2017-06-20T03:31:06.326Z,21.10
2017-06-20T03:33:34.616Z,21.10
2017-06-20T03:36:03.723Z,21.20
2017-06-20T03:38:32.096Z,21.20
2017-06-20T03:41:00.479Z,21.20
2017-06-20T03:43:28.778Z,21.20
2017-06-20T03:45:58.152Z,21.20
2017-06-20T03:48:26.632Z,21.20
2017-06-20T03:50:56.131Z,21.30
2017-06-20T03:53:24.431Z,21.30
2017-06-20T03:55:52.699Z,21.30
2017-06-20T03:58:21.220Z,21.30
2017-06-20T04:00:49.543Z,21.30
2017-06-20T04:03:17.832Z,21.30
2017-06-20T04:05:46.890Z,21.30
2017-06-20T04:08:15.172Z,21.30
2017-06-20T04:10:43.715Z,21.30
2017-06-20T04:13:12.091Z,21.30
2017-06-20T04:15:41.180Z,21.30
2017-06-20T04:18:10.225Z,21.40
2017-06-20T04:20:38.702Z,21.40
2017-06-20T04:23:07.076Z,21.40
2017-06-20T04:25:35.443Z,21.50
2017-06-20T04:28:04.532Z,21.50
2017-06-20T04:30:32.796Z,21.50
2017-06-20T04:33:01.897Z,21.60
2017-06-20T04:35:31.135Z,21.60
2017-06-20T04:37:59.430Z,21.70
2017-06-20T04:40:28.469Z,21.70
2017-06-20T04:42:56.771Z,21.70
2017-06-20T04:45:25.927Z,21.70
2017-06-20T04:47:54.215Z,21.70
2017-06-20T04:50:23.276Z,21.70
2017-06-20T04:52:51.864Z,21.70
2017-06-20T04:55:20.194Z,21.70
2017-06-20T04:57:48.502Z,21.80
2017-06-20T05:00:16.789Z,21.90
2017-06-20T05:02:45.066Z,22.00
2017-06-20T05:05:13.540Z,22.00
2017-06-20T05:07:42.143Z,22.10
2017-06-20T05:10:10.676Z,22.20
2017-06-20T05:12:39.039Z,22.30
2017-06-20T05:15:08.219Z,22.40
2017-06-20T05:17:37.265Z,22.50
2017-06-20T05:20:05.671Z,22.50
2017-06-20T05:22:33.987Z,22.50
2017-06-20T05:25:02.263Z,22.60
2017-06-20T05:27:31.368Z,22.70
2017-06-20T05:29:59.653Z,22.70
2017-06-20T05:32:28.037Z,22.80
2017-06-20T05:34:57.081Z,23.10
2017-06-20T05:37:25.452Z,23.10
2017-06-20T05:39:53.737Z,23.20
2017-06-20T05:42:22.803Z,23.50
2017-06-20T05:44:51.083Z,23.50
2017-06-20T05:47:19.374Z,23.50
2017-06-20T05:49:47.831Z,23.50
2017-06-20T05:52:16.109Z,23.60
2017-06-20T05:54:44.406Z,23.70
2017-06-20T05:57:12.702Z,23.80
2017-06-20T05:59:40.991Z,23.80
2017-06-20T06:02:09.319Z,23.80
2017-06-20T06:04:38.413Z,23.80
2017-06-20T06:07:06.717Z,23.80
2017-06-20T06:09:35.015Z,23.90
2017-06-20T06:12:04.056Z,24.10
2017-06-20T06:14:32.346Z,24.00
2017-06-20T06:17:01.514Z,24.30
2017-06-20T06:19:29.796Z,24.30
2017-06-20T06:21:58.108Z,24.40
2017-06-20T06:24:26.375Z,24.40
2017-06-20T06:26:54.767Z,24.40
2017-06-20T06:29:23.046Z,24.50
2017-06-20T06:31:51.535Z,24.40
2017-06-20T06:34:19.822Z,24.50
2017-06-20T06:36:48.127Z,24.50
2017-06-20T06:39:16.608Z,24.60
2017-06-20T06:41:45.644Z,24.60
2017-06-20T06:44:13.943Z,24.60
2017-06-20T06:46:43.095Z,24.60
2017-06-20T06:49:11.506Z,24.60
2017-06-20T06:51:39.791Z,24.60
2017-06-20T06:54:08.080Z,24.60
2017-06-20T06:56:36.499Z,24.70
2017-06-20T06:59:04.792Z,24.80
2017-06-20T07:01:33.212Z,24.80
2017-06-20T07:04:01.702Z,24.90
2017-06-20T07:06:29.982Z,25.00
2017-06-20T07:08:58.250Z,25.00
2017-06-20T07:11:27.619Z,25.20
2017-06-20T07:13:55.922Z,25.10
2017-06-20T07:16:24.214Z,25.10
2017-06-20T07:18:53.253Z,25.30
2017-06-20T07:21:21.839Z,25.30
2017-06-20T07:23:50.115Z,25.50
2017-06-20T07:26:19.195Z,25.60
2017-06-20T07:28:47.684Z,25.60
2017-06-20T07:31:15.987Z,25.70
2017-06-20T07:33:44.365Z,25.70
2017-06-20T07:36:12.643Z,25.70
2017-06-20T07:38:40.923Z,25.80
2017-06-20T07:41:09.447Z,25.80
2017-06-20T07:43:37.819Z,25.80
2017-06-20T07:46:06.079Z,25.80
2017-06-20T07:48:34.371Z,25.90
2017-06-20T07:51:03.512Z,25.90
2017-06-20T07:53:31.814Z,25.90
2017-06-20T07:56:00.135Z,26.00
2017-06-20T07:58:28.428Z,25.70
2017-06-20T08:00:57.809Z,26.00
2017-06-20T08:03:26.184Z,26.00
2017-06-20T08:05:55.268Z,26.00
2017-06-20T08:08:24.423Z,26.30
2017-06-20T08:10:52.730Z,26.20
2017-06-20T08:13:21.047Z,26.40
2017-06-20T08:15:50.922Z,26.40
2017-06-20T08:18:19.178Z,26.40
2017-06-20T08:20:47.515Z,26.50
2017-06-20T08:23:16.166Z,26.50
2017-06-20T08:25:45.219Z,26.60
2017-06-20T08:28:13.603Z,26.60
2017-06-20T08:30:41.885Z,26.70
2017-06-20T08:33:10.168Z,26.80
2017-06-20T08:35:38.484Z,26.90
2017-06-20T08:38:06.769Z,26.90
2017-06-20T08:40:35.049Z,27.00
2017-06-20T08:43:03.455Z,27.10
2017-06-20T08:45:31.745Z,27.20
2017-06-20T08:48:00.071Z,27.20
2017-06-20T08:50:28.745Z,27.30
2017-06-20T08:52:57.140Z,27.30
2017-06-20T08:55:26.595Z,27.40
2017-06-20T08:57:54.900Z,27.40
2017-06-20T09:00:23.952Z,27.50
2017-06-20T09:02:52.260Z,27.50
2017-06-20T09:05:20.697Z,27.50
2017-06-20T09:07:49.745Z,27.70
2017-06-20T09:10:18.112Z,27.70
2017-06-20T09:12:46.399Z,27.60
2017-06-20T09:15:14.772Z,27.60
2017-06-20T09:17:43.815Z,27.70
2017-06-20T09:20:12.136Z,27.70
2017-06-20T09:22:40.405Z,27.80
2017-06-20T09:25:08.743Z,27.90
2017-06-20T09:27:37.877Z,28.20
2017-06-20T09:30:06.399Z,28.10
2017-06-20T09:32:34.851Z,28.20
2017-06-20T09:35:03.217Z,28.20
2017-06-20T09:37:32.254Z,28.40
2017-06-20T09:40:00.957Z,28.40
2017-06-20T09:42:29.251Z,28.40
2017-06-20T09:44:57.543Z,28.40
2017-06-20T09:47:26.235Z,28.40
2017-06-20T09:49:54.799Z,28.40
2017-06-20T09:52:23.088Z,28.50
2017-06-20T09:54:52.131Z,28.50
2017-06-20T09:57:20.698Z,28.50
2017-06-20T09:59:48.974Z,28.50
2017-06-20T10:02:17.259Z,28.50
2017-06-20T10:04:46.319Z,28.60
2017-06-20T10:07:14.655Z,28.60
2017-06-20T10:09:43.006Z,28.70
2017-06-20T10:12:11.416Z,28.70
2017-06-20T10:14:40.603Z,28.90
2017-06-20T10:17:09.647Z,28.90
2017-06-20T10:19:37.953Z,28.80
2017-06-20T10:22:06.998Z,28.90
2017-06-20T10:24:35.287Z,28.90
2017-06-20T10:27:05.106Z,29.00
2017-06-20T10:29:34.139Z,28.90
2017-06-20T10:32:02.419Z,28.90
2017-06-20T10:34:30.723Z,28.90
2017-06-20T10:36:59.008Z,28.90
2017-06-20T10:39:27.414Z,28.80
2017-06-20T10:41:56.479Z,29.00
2017-06-20T10:44:24.755Z,28.90
2017-06-20T10:46:53.811Z,29.30
2017-06-20T10:49:22.292Z,29.20
2017-06-20T10:51:50.735Z,29.40
2017-06-20T10:54:19.436Z,29.40
2017-06-20T10:56:47.732Z,29.50
2017-06-20T10:59:16.005Z,29.40
2017-06-20T11:01:44.282Z,29.30
2017-06-20T11:04:12.659Z,29.40
2017-06-20T11:06:40.934Z,29.40
2017-06-20T11:09:09.220Z,29.40
2017-06-20T11:11:37.512Z,29.40
2017-06-20T11:14:06.316Z,29.40
2017-06-20T11:16:34.719Z,29.70
2017-06-20T11:19:04.002Z,30.10
2017-06-20T11:21:32.311Z,30.10
2017-06-20T11:24:00.604Z,30.00
2017-06-20T11:26:28.980Z,30.00
2017-06-20T11:28:57.268Z,30.00
2017-06-20T11:31:25.619Z,30.00
2017-06-20T11:33:54.663Z,30.00
2017-06-20T11:36:22.961Z,29.90
2017-06-20T11:38:51.999Z,29.70
2017-06-20T11:41:20.356Z,29.70
2017-06-20T11:43:48.632Z,29.60
2017-06-20T11:46:16.925Z,29.40
2017-06-20T11:48:46.020Z,29.40
2017-06-20T11:51:14.339Z,29.40
2017-06-20T11:53:42.719Z,29.50
2017-06-20T11:56:11.776Z,29.60
2017-06-20T11:58:40.084Z,29.60
2017-06-20T12:01:08.391Z,29.70
2017-06-20T12:03:36.887Z,29.50
2017-06-20T12:06:05.507Z,29.60
2017-06-20T12:08:36.417Z,29.60
2017-06-20T12:11:04.761Z,29.70
2017-06-20T12:13:33.051Z,29.90
2017-06-20T12:16:01.335Z,30.10
2017-06-20T12:18:30.528Z,30.30
2017-06-20T12:20:58.811Z,30.20
2017-06-20T12:23:27.874Z,30.40
2017-06-20T12:25:56.146Z,30.40
2017-06-20T12:28:24.720Z,30.50
2017-06-20T12:30:53.771Z,30.50
2017-06-20T12:33:22.050Z,30.40
2017-06-20T12:35:50.337Z,30.60
2017-06-20T12:38:18.652Z,31.00
2017-06-20T12:40:47.066Z,31.10
2017-06-20T12:43:16.103Z,30.90
2017-06-20T12:45:44.670Z,30.90
2017-06-20T12:48:13.054Z,30.60
2017-06-20T12:50:41.345Z,30.50
2017-06-20T12:53:09.615Z,30.60
2017-06-20T12:55:37.910Z,30.70
2017-06-20T12:58:06.206Z,30.80
2017-06-20T13:00:34.601Z,31.10
2017-06-20T13:03:02.877Z,31.00
2017-06-20T13:05:31.152Z,31.00
2017-06-20T13:07:59.443Z,30.90
2017-06-20T13:10:27.731Z,30.80
2017-06-20T13:12:56.786Z,30.90
2017-06-20T13:15:25.058Z,30.90
2017-06-20T13:17:53.603Z,31.00
2017-06-20T13:20:21.986Z,30.90
2017-06-20T13:22:51.043Z,30.80
2017-06-20T13:25:19.331Z,30.80
2017-06-20T13:27:48.392Z,31.20
2017-06-20T13:30:16.960Z,31.20
2017-06-20T13:32:45.249Z,31.40
2017-06-20T13:35:13.604Z,31.40
2017-06-20T13:37:42.815Z,31.10
2017-06-20T13:40:11.106Z,31.10
2017-06-20T13:42:39.420Z,31.00
2017-06-20T13:45:08.459Z,31.00
2017-06-20T13:47:37.424Z,31.00
2017-06-20T13:50:05.800Z,31.10
2017-06-20T13:52:34.099Z,31.10
2017-06-20T13:55:03.151Z,31.00
2017-06-20T13:57:31.427Z,30.90
2017-06-20T14:00:00.552Z,30.90
2017-06-20T14:02:28.826Z,30.90
2017-06-20T14:04:57.111Z,30.90
2017-06-20T14:07:25.386Z,30.80
2017-06-20T14:09:53.730Z,30.60
2017-06-20T14:12:22.139Z,30.80
2017-06-20T14:14:51.192Z,30.90
2017-06-20T14:17:19.471Z,30.90
2017-06-20T14:19:48.521Z,30.90
2017-06-20T14:22:16.800Z,30.90
2017-06-20T14:24:45.111Z,31.00
2017-06-20T14:27:13.384Z,30.90
2017-06-20T14:29:41.659Z,30.80
2017-06-20T14:32:09.954Z,30.90
2017-06-20T14:34:38.312Z,31.10
2017-06-20T14:37:06.727Z,31.10
2017-06-20T14:39:35.002Z,31.10
2017-06-20T14:42:03.295Z,31.10
2017-06-20T14:44:31.770Z,31.10
2017-06-20T14:47:00.821Z,30.90
2017-06-20T14:49:29.091Z,30.90
2017-06-20T14:51:57.389Z,30.90
2017-06-20T14:54:26.431Z,30.90
2017-06-20T14:56:54.708Z,30.90
2017-06-20T14:59:22.994Z,31.10
2017-06-20T15:01:51.448Z,31.20
2017-06-20T15:04:20.503Z,31.10
2017-06-20T15:06:48.781Z,31.10
2017-06-20T15:09:17.831Z,31.20
2017-06-20T15:11:46.173Z,31.20
2017-06-20T15:14:14.620Z,31.30
2017-06-20T15:16:43.157Z,31.30
2017-06-20T15:19:11.427Z,31.50
2017-06-20T15:21:40.468Z,31.00
2017-06-20T15:24:08.756Z,31.00
2017-06-20T15:26:37.057Z,30.80
2017-06-20T15:29:05.356Z,30.80
2017-06-20T15:31:33.631Z,30.80
2017-06-20T15:34:02.027Z,30.90
2017-06-20T15:36:31.075Z,30.90
2017-06-20T15:38:59.371Z,30.90
2017-06-20T15:41:27.663Z,30.90
2017-06-20T15:43:55.948Z,31.00
2017-06-20T15:46:24.367Z,31.10
2017-06-20T15:48:52.633Z,31.20
2017-06-20T15:51:20.915Z,31.20
2017-06-20T15:53:49.338Z,31.30
2017-06-20T15:56:17.720Z,31.40
2017-06-20T15:58:46.012Z,31.40
2017-06-20T16:01:14.437Z,31.40
2017-06-20T16:03:42.912Z,31.60
2017-06-20T16:06:11.215Z,31.50
2017-06-20T16:08:39.510Z,31.70
2017-06-20T16:11:08.569Z,31.70
2017-06-20T16:13:36.863Z,31.60
2017-06-20T16:16:05.148Z,31.60
2017-06-20T16:18:33.474Z,31.70
2017-06-20T16:21:02.552Z,31.60
2017-06-20T16:23:31.614Z,31.80
2017-06-20T16:25:59.888Z,31.80
2017-06-20T16:28:28.366Z,31.80
2017-06-20T16:30:56.822Z,31.60
2017-06-20T16:33:25.107Z,31.40
2017-06-20T16:35:53.383Z,31.40
2017-06-20T16:38:21.823Z,31.30
2017-06-20T16:40:50.867Z,30.90
2017-06-20T16:43:19.159Z,30.90
2017-06-20T16:45:48.200Z,31.00
2017-06-20T16:48:16.484Z,30.90
2017-06-20T16:50:44.765Z,30.80
2017-06-20T16:53:13.133Z,30.70
2017-06-20T16:55:41.584Z,30.80
2017-06-20T16:58:10.631Z,30.70
2017-06-20T17:00:38.934Z,30.70
2017-06-20T17:03:07.995Z,30.40
2017-06-20T17:05:36.282Z,30.40
2017-06-20T17:08:04.565Z,30.50
2017-06-20T17:10:32.959Z,30.50
2017-06-20T17:13:01.352Z,30.70
2017-06-20T17:15:29.643Z,30.80
2017-06-20T17:17:57.919Z,30.70
2017-06-20T17:20:26.252Z,30.70
2017-06-20T17:22:54.605Z,30.50
2017-06-20T17:25:23.722Z,30.00
2017-06-20T17:27:52.099Z,30.00
2017-06-20T17:30:20.443Z,29.60
2017-06-20T17:32:48.721Z,29.60
2017-06-20T17:35:17.123Z,29.70
2017-06-20T17:37:45.859Z,29.40
2017-06-20T17:40:14.130Z,29.50
2017-06-20T17:42:42.463Z,29.40
2017-06-20T17:45:10.759Z,29.30
2017-06-20T17:47:39.047Z,29.20
2017-06-20T17:50:07.327Z,29.20
2017-06-20T17:52:35.633Z,29.00
2017-06-20T17:55:03.911Z,29.10
2017-06-20T17:57:32.212Z,29.00
2017-06-20T18:00:01.244Z,29.30
2017-06-20T18:02:29.561Z,29.30
2017-06-20T18:04:58.601Z,29.10
2017-06-20T18:07:26.896Z,29.10
2017-06-20T18:09:55.199Z,29.00
2017-06-20T18:12:23.539Z,29.10
2017-06-20T18:14:51.814Z,29.00
2017-06-20T18:17:20.216Z,28.70
2017-06-20T18:19:48.501Z,28.60
2017-06-20T18:22:17.544Z,28.40
2017-06-20T18:24:45.836Z,28.40
2017-06-20T18:27:14.143Z,28.40
2017-06-20T18:29:42.429Z,28.20
2017-06-20T18:32:10.722Z,28.10
2017-06-20T18:34:39.019Z,27.90
2017-06-20T18:37:30.191Z,27.90
2017-06-20T18:39:59.246Z,27.70
2017-06-20T18:42:27.528Z,27.70
2017-06-20T18:44:55.840Z,27.70
2017-06-20T18:47:24.167Z,27.70
2017-06-20T18:49:52.467Z,27.60
2017-06-20T18:52:20.747Z,27.50
2017-06-20T18:54:49.047Z,27.20
2017-06-20T18:57:18.249Z,26.80
2017-06-20T18:59:46.697Z,26.80
2017-06-20T19:02:14.981Z,26.80
2017-06-20T19:04:43.263Z,26.60
2017-06-20T19:07:11.583Z,26.30
2017-06-20T19:09:39.899Z,26.30
2017-06-20T19:12:08.199Z,26.20
2017-06-20T19:14:36.667Z,26.10
2017-06-20T19:17:05.730Z,26.10
2017-06-20T19:19:34.114Z,26.10
2017-06-20T19:22:03.054Z,25.90
2017-06-20T19:24:32.031Z,25.80
2017-06-20T19:27:00.406Z,25.70
2017-06-20T19:29:28.670Z,25.60
2017-06-20T19:31:56.978Z,25.60
2017-06-20T19:34:25.261Z,25.50
2017-06-20T19:36:53.551Z,25.40
2017-06-20T19:39:21.831Z,25.10
2017-06-20T19:41:51.690Z,24.80
2017-06-20T19:44:20.100Z,24.80
2017-06-20T19:46:48.428Z,24.60
2017-06-20T19:49:17.848Z,24.50
2017-06-20T19:51:46.564Z,24.50
2017-06-20T19:54:14.995Z,24.50
2017-06-20T19:56:43.401Z,24.30
2017-06-20T19:59:11.827Z,24.30
2017-06-20T20:01:40.259Z,24.30
2017-06-20T20:04:08.638Z,24.10
2017-06-20T20:06:36.962Z,24.10
2017-06-20T20:09:05.272Z,24.00
2017-06-20T20:11:33.709Z,24.00
2017-06-20T20:14:02.766Z,23.80
2017-06-20T20:16:31.130Z,23.80
2017-06-20T20:19:00.026Z,23.80
2017-06-20T20:21:28.527Z,23.70
2017-06-20T20:23:57.273Z,23.60
2017-06-20T20:26:25.629Z,23.60
2017-06-20T20:28:53.972Z,23.60
2017-06-20T20:31:23.046Z,23.30
2017-06-20T20:33:51.338Z,23.30
2017-06-20T20:36:19.716Z,23.30
2017-06-20T20:38:48.001Z,23.30
2017-06-20T20:41:16.296Z,23.30
2017-06-20T20:43:44.743Z,23.20
2017-06-20T20:46:13.256Z,23.20
2017-06-20T20:48:42.353Z,23.00
2017-06-20T20:51:12.246Z,23.00
2017-06-20T20:53:40.591Z,23.00
2017-06-20T20:56:10.527Z,23.00
2017-06-20T20:58:38.812Z,22.90
2017-06-20T21:01:07.179Z,22.90
2017-06-20T21:03:35.478Z,22.80
2017-06-20T21:06:04.615Z,22.60
2017-06-20T21:08:32.920Z,22.60
2017-06-20T21:11:01.959Z,22.50
2017-06-20T21:13:30.275Z,22.40
2017-06-20T21:15:59.295Z,22.30
2017-06-20T21:18:27.590Z,22.30
2017-06-20T21:20:55.872Z,22.30
2017-06-20T21:23:24.216Z,22.20
2017-06-20T21:25:52.477Z,22.10
2017-06-20T21:28:20.883Z,22.10
2017-06-20T21:30:49.171Z,22.00
2017-06-20T21:33:17.466Z,21.90
2017-06-20T21:35:46.514Z,21.90
2017-06-20T21:38:14.867Z,21.90
2017-06-20T21:40:43.174Z,21.80
2017-06-20T21:43:12.261Z,21.70
2017-06-20T21:45:41.056Z,21.70
2017-06-20T21:48:09.591Z,21.70
2017-06-20T21:50:37.986Z,21.60
2017-06-20T21:53:06.279Z,21.50
2017-06-20T21:55:34.650Z,21.50
2017-06-20T21:58:02.899Z,21.50
2017-06-20T22:00:31.263Z,21.50
2017-06-20T22:03:00.074Z,21.50
2017-06-20T22:05:28.387Z,21.50
2017-06-20T22:07:56.893Z,21.40
2017-06-20T22:10:25.186Z,21.40
2017-06-20T22:12:53.486Z,21.40
2017-06-20T22:15:21.763Z,21.30
2017-06-20T22:17:50.100Z,21.20
2017-06-20T22:20:19.610Z,21.20
2017-06-20T22:22:48.060Z,21.10
2017-06-20T22:25:16.353Z,21.00
2017-06-20T22:27:44.663Z,20.90
2017-06-20T22:30:12.983Z,20.90
2017-06-20T22:32:41.299Z,20.90
2017-06-20T22:35:09.605Z,20.80
2017-06-20T22:37:37.920Z,20.70
2017-06-20T22:40:06.197Z,20.50
2017-06-20T22:42:34.491Z,20.50
2017-06-20T22:45:02.791Z,20.40
2017-06-20T22:47:31.120Z,20.40
2017-06-20T22:49:59.423Z,20.30
2017-06-20T22:52:27.719Z,20.30
2017-06-20T22:54:56.025Z,20.30
2017-06-20T22:57:25.077Z,20.20
2017-06-20T22:59:53.366Z,20.20
2017-06-20T23:02:22.513Z,20.10
2017-06-20T23:04:50.803Z,20.10
2017-06-20T23:07:19.092Z,20.10
2017-06-20T23:09:47.383Z,20.10
2017-06-20T23:12:16.347Z,20.10
2017-06-20T23:14:44.643Z,20.10
2017-06-20T23:17:12.923Z,20.10
2017-06-20T23:19:41.984Z,20.00
2017-06-20T23:22:10.266Z,20.00
2017-06-20T23:24:38.575Z,19.90
2017-06-20T23:27:07.891Z,19.70
2017-06-20T23:29:36.175Z,19.70
2017-06-20T23:32:05.244Z,19.70
2017-06-20T23:34:33.532Z,19.70
2017-06-20T23:37:01.877Z,19.80
2017-06-20T23:39:30.188Z,19.70
2017-06-20T23:41:58.503Z,19.70
2017-06-20T23:44:26.782Z,19.60
2017-06-20T23:46:55.866Z,19.60
2017-06-20T23:49:24.191Z,19.60
2017-06-20T23:51:52.478Z,19.60
2017-06-20T23:54:21.528Z,19.50
2017-06-20T23:56:56.255Z,19.50
2017-06-20T23:59:24.603Z,19.50
